Terminal Aerodrome Forecast
Issued by NWS Albany, NY

Home | Current Version | Previous Version | Text Only | Print | Product List | Glossary On
Versions: 1 2 3 4 5 6 7 8 9 10 11 12 13 14 15 16 17 18 19 20 21 22 23 24 25 26 27 28 29 30 31 32 33
000
FTUS41 KALY 300500
TAFALB
TAF
KALB 300534Z 3006/3106 00000KT P6SM BKN080
     FM300900 00000KT P6SM SCT080
     FM301200 20003KT P6SM SCT050
     FM301700 20006KT P6SM BKN050
     FM310200 18003KT P6SM BKN050=

USA.gov is the U.S. government's official web portal to all federal, state and local government web resources and services.